Time;durP1;ratioP1;P1;durP2;ratioP2;P2;SDS_P1;SDS_P2;PMS_P1;PMS_P2;Temp;Humidity;BMP_temperature;BMP_pressure;BME280_temperature;BME280_humidity;BME280_pressure;Samples;Min_cycle;Max_cycle;Signal;HPM_P1;HPM_P2
2023/02/13 00:04:56;;;;;;;35.35;24.25;;;;;;;7.06;100.00;103762.59;10378024;28;20030;-65
2023/02/13 00:09:56;;;;;;;39.28;23.75;;;;;;;7.05;100.00;103760.84;10378886;28;20034;-65
2023/02/13 00:14:58;;;;;;;45.05;26.48;;;;;;;7.06;100.00;103759.91;10378209;28;20113;-65
2023/02/13 00:19:58;;;;;;;44.53;25.23;;;;;;;7.01;100.00;103757.50;10376666;28;20041;-65
2023/02/13 00:24:59;;;;;;;36.60;23.77;;;;;;;7.06;100.00;103759.91;10377453;28;20037;-65
2023/02/13 00:29:59;;;;;;;50.58;26.42;;;;;;;7.03;100.00;103755.56;10382654;28;20041;-65
2023/02/13 00:34:59;;;;;;;42.90;25.77;;;;;;;7.05;100.00;103750.06;10381599;28;20362;-65
2023/02/13 00:40:00;;;;;;;35.15;24.02;;;;;;;7.06;100.00;103752.66;10378360;28;20034;-65
2023/02/13 00:45:00;;;;;;;42.25;27.35;;;;;;;7.08;100.00;103745.31;10408132;28;20042;-65
2023/02/13 00:50:01;;;;;;;42.92;23.38;;;;;;;7.11;100.00;103745.13;10376069;28;20030;-65
2023/02/13 00:55:02;;;;;;;41.40;25.58;;;;;;;7.08;100.00;103742.63;10376088;28;20025;-65
2023/02/13 01:00:02;;;;;;;44.75;25.27;;;;;;;7.12;100.00;103741.47;10375919;28;20377;-65
2023/02/13 01:05:03;;;;;;;41.95;27.33;;;;;;;7.15;100.00;103733.19;10375047;28;20038;-65
2023/02/13 01:10:04;;;;;;;40.75;23.48;;;;;;;7.10;100.00;103726.38;10374940;28;20446;-65
2023/02/13 01:15:05;;;;;;;46.50;24.60;;;;;;;7.07;100.00;103719.34;10374064;28;20115;-65
2023/02/13 01:20:07;;;;;;;39.70;25.40;;;;;;;7.08;100.00;103731.84;10375830;28;20112;-64
2023/02/13 01:25:07;;;;;;;39.63;25.05;;;;;;;7.11;100.00;103723.56;10376221;28;20108;-65
2023/02/13 01:30:12;;;;;;;45.20;24.30;;;;;;;7.15;100.00;103724.25;10375424;28;20117;-65
2023/02/13 01:35:13;;;;;;;39.03;23.05;;;;;;;7.15;100.00;103718.84;10359185;28;20045;-65
2023/02/13 01:40:14;;;;;;;39.95;24.80;;;;;;;7.11;100.00;103725.41;10357982;28;20450;-69
2023/02/13 01:45:18;;;;;;;40.15;25.85;;;;;;;7.09;100.00;103719.25;10375944;28;20045;-65
2023/02/13 01:50:33;;;;;;;32.28;23.23;;;;;;;7.09;100.00;103719.25;10373516;28;20021;-65
2023/02/13 01:55:36;;;;;;;43.72;24.70;;;;;;;7.09;100.00;103724.66;10375719;28;20030;-65
2023/02/13 02:00:36;;;;;;;41.50;26.15;;;;;;;7.04;100.00;103722.25;10373177;28;20100;-65
2023/02/13 02:05:37;;;;;;;46.35;26.48;;;;;;;7.06;100.00;103714.94;10373019;28;20104;-65
2023/02/13 02:10:38;;;;;;;36.25;24.92;;;;;;;7.08;100.00;103717.53;10374123;28;20374;-65
2023/02/13 02:15:39;;;;;;;43.05;25.45;;;;;;;7.11;100.00;103711.91;10373951;28;20414;-65
2023/02/13 02:21:01;;;;;;;38.22;25.30;;;;;;;7.10;100.00;103711.06;10340796;28;20501;-65
2023/02/13 02:26:07;;;;;;;44.13;27.42;;;;;;;7.10;100.00;103711.06;10373914;28;20513;-65
2023/02/13 02:31:17;;;;;;;40.25;23.65;;;;;;;7.08;100.00;103704.03;10373152;28;20068;-65
2023/02/13 02:36:27;;;;;;;37.92;23.90;;;;;;;7.05;100.00;103704.25;10375972;28;20097;-65
2023/02/13 02:41:47;;;;;;;46.20;26.52;;;;;;;7.04;100.00;103702.53;10374935;28;20096;-65
2023/02/13 02:52:30;;;;;;;44.30;27.58;;;;;;;7.00;100.00;103693.81;10374320;28;20038;-65
2023/02/13 03:08:11;;;;;;;42.40;28.38;;;;;;;6.95;100.00;103694.09;10365941;28;20029;-65
2023/02/13 03:13:19;;;;;;;39.95;25.25;;;;;;;6.95;100.00;103685.16;10363448;28;20108;-65
2023/02/13 03:23:57;;;;;;;53.92;29.45;;;;;;;7.01;100.00;103691.97;10380193;28;20462;-65
2023/02/13 03:40:15;;;;;;;44.53;27.77;;;;;;;6.97;100.00;103667.06;10378585;28;20501;-65
2023/02/13 03:50:44;;;;;;;40.13;27.35;;;;;;;6.91;100.00;103673.75;10377538;28;20045;-65
2023/02/13 04:01:05;;;;;;;50.53;28.63;;;;;;;6.93;100.00;103665.56;10377800;28;20033;-65
2023/02/13 04:06:12;;;;;;;49.45;28.30;;;;;;;6.92;100.00;103669.22;10375869;28;20037;-65
2023/02/13 04:11:32;;;;;;;46.42;27.23;;;;;;;6.90;100.00;103661.25;10377079;28;20026;-65
2023/02/13 04:16:37;;;;;;;38.15;25.27;;;;;;;6.92;100.00;103661.13;10377260;28;20392;-65
2023/02/13 04:21:41;;;;;;;45.80;27.05;;;;;;;6.85;100.00;103668.78;10360464;28;20061;-65
2023/02/13 04:26:42;;;;;;;44.97;27.73;;;;;;;6.82;100.00;103663.59;10360633;28;20139;-65
2023/02/13 04:31:42;;;;;;;50.22;28.17;;;;;;;6.85;100.00;103666.06;10376303;28;20423;-65
2023/02/13 04:36:43;;;;;;;41.15;26.13;;;;;;;6.89;100.00;103682.88;10379179;28;20175;-65
2023/02/13 04:41:43;;;;;;;45.17;24.92;;;;;;;6.91;100.00;103684.53;10376069;28;20374;-65
2023/02/13 04:46:44;;;;;;;39.10;23.95;;;;;;;6.88;100.00;103668.56;10377282;28;20046;-65
2023/02/13 04:51:44;;;;;;;41.00;25.38;;;;;;;6.86;100.00;103665.13;10377453;28;20080;-65
2023/02/13 04:56:45;;;;;;;46.05;24.88;;;;;;;6.85;100.00;103657.13;10379778;28;20128;-65
2023/02/13 05:01:45;;;;;;;44.13;24.70;;;;;;;6.85;100.00;103658.00;10379662;28;20030;-65
2023/02/13 05:06:46;;;;;;;38.70;25.33;;;;;;;6.86;100.00;103650.78;10376860;28;20104;-65
2023/02/13 05:11:46;;;;;;;44.05;26.25;;;;;;;6.93;100.00;103654.81;10376087;28;20029;-65
2023/02/13 05:16:48;;;;;;;52.55;25.45;;;;;;;6.89;100.00;103651.47;10375699;28;20465;-65
2023/02/13 05:27:08;;;;;;;33.38;21.75;;;;;;;6.87;100.00;103655.22;10375687;28;20457;-65
2023/02/13 05:32:08;;;;;;;42.63;25.08;;;;;;;6.94;100.00;103645.75;10375388;28;20065;-65
2023/02/13 05:37:09;;;;;;;52.63;21.85;;;;;;;6.99;100.00;103655.22;10374616;28;20076;-65
2023/02/13 05:42:10;;;;;;;34.75;24.27;;;;;;;6.97;100.00;103651.78;10375766;28;20116;-65
2023/02/13 05:47:10;;;;;;;37.90;23.92;;;;;;;6.99;100.00;103651.69;10376129;28;20054;-65
2023/02/13 05:52:10;;;;;;;34.17;21.98;;;;;;;6.93;100.00;103646.72;10373941;28;20419;-65
2023/02/13 05:57:11;;;;;;;35.95;21.10;;;;;;;6.97;100.00;103645.53;10375033;28;20034;-65
2023/02/13 06:02:11;;;;;;;35.30;24.38;;;;;;;6.91;100.00;103635.19;10373633;28;20056;-65
2023/02/13 06:07:12;;;;;;;39.30;24.98;;;;;;;6.92;100.00;103637.78;10373421;28;20464;-65
2023/02/13 06:12:12;;;;;;;44.60;22.85;;;;;;;6.88;100.00;103641.63;10376035;28;20112;-65
2023/02/13 06:17:13;;;;;;;33.85;23.50;;;;;;;6.86;100.00;103642.69;10374135;28;20088;-65
2023/02/13 06:22:13;;;;;;;33.92;23.45;;;;;;;6.85;100.00;103636.44;10296076;28;20050;-65
2023/02/13 06:27:13;;;;;;;34.30;20.75;;;;;;;6.77;100.00;103632.59;10334326;28;20076;-65
2023/02/13 06:32:14;;;;;;;40.35;24.00;;;;;;;6.78;100.00;103634.31;10342081;28;20449;-65
2023/02/13 06:37:14;;;;;;;45.33;25.15;;;;;;;6.85;100.00;103639.16;10372353;28;20053;-64
2023/02/13 06:42:17;;;;;;;38.83;22.90;;;;;;;6.90;100.00;103638.84;10373143;28;20085;-64
2023/02/13 06:47:17;;;;;;;51.83;28.50;;;;;;;6.85;100.00;103655.31;10339883;28;20475;-64
2023/02/13 06:52:20;;;;;;;42.90;23.60;;;;;;;6.83;100.00;103648.28;10340623;28;20073;-65
2023/02/13 06:57:20;;;;;;;42.80;24.20;;;;;;;6.88;100.00;103652.41;10339352;28;20467;-65
2023/02/13 07:02:21;;;;;;;35.13;21.27;;;;;;;6.89;100.00;103662.22;10340247;28;20046;-65
2023/02/13 07:07:21;;;;;;;35.30;22.30;;;;;;;6.98;100.00;103671.47;10355391;28;20066;-65
2023/02/13 07:12:21;;;;;;;39.80;24.45;;;;;;;7.06;100.00;103677.22;10345262;28;20074;-65
2023/02/13 07:17:22;;;;;;;39.78;26.83;;;;;;;7.07;100.00;103673.56;10341227;28;20039;-65
2023/02/13 07:22:22;;;;;;;40.08;25.58;;;;;;;7.12;100.00;103678.63;10339402;28;20457;-64
2023/02/13 07:27:23;;;;;;;42.83;23.90;;;;;;;7.14;100.00;103672.16;10338318;28;20162;-65
2023/02/13 07:32:23;;;;;;;36.25;24.05;;;;;;;7.18;100.00;103679.06;10338643;28;20550;-65
2023/02/13 07:37:26;;;;;;;38.40;23.75;;;;;;;7.19;100.00;103677.22;10337983;28;20398;-65
2023/02/13 07:42:26;;;;;;;41.70;26.00;;;;;;;7.21;100.00;103678.84;10336371;28;20486;-65
2023/02/13 07:47:27;;;;;;;38.88;24.92;;;;;;;7.21;100.00;103681.56;10338556;28;20059;-65
2023/02/13 07:52:27;;;;;;;39.55;22.98;;;;;;;7.23;100.00;103676.91;10338350;28;20387;-64
2023/02/13 07:57:27;;;;;;;44.33;25.13;;;;;;;7.29;100.00;103680.16;10338654;28;20062;-64
2023/02/13 08:02:28;;;;;;;37.78;24.90;;;;;;;7.41;100.00;103690.06;10336768;28;20085;-64
2023/02/13 08:07:28;;;;;;;50.42;28.20;;;;;;;7.50;100.00;103684.03;10369136;28;20117;-65
2023/02/13 08:12:29;;;;;;;44.75;29.55;;;;;;;7.51;100.00;103692.97;10337550;28;20678;-65
2023/02/13 08:17:29;;;;;;;45.00;28.67;;;;;;;7.73;100.00;103684.22;10319996;28;20035;-65
2023/02/13 08:22:30;;;;;;;46.03;27.13;;;;;;;7.98;100.00;103681.47;10336450;28;20133;-65
2023/02/13 08:27:31;;;;;;;41.85;26.52;;;;;;;8.43;100.00;103680.91;10337492;28;20486;-65
2023/02/13 08:32:31;;;;;;;40.58;24.38;;;;;;;8.98;100.00;103691.03;10335242;28;20133;-65
2023/02/13 08:37:31;;;;;;;48.13;31.05;;;;;;;9.28;100.00;103678.81;10335713;28;20042;-65
2023/02/13 08:42:32;;;;;;;43.60;26.00;;;;;;;9.17;100.00;103686.91;10335920;28;20119;-65
2023/02/13 08:47:32;;;;;;;47.28;27.25;;;;;;;9.07;100.00;103689.47;10334830;28;20042;-65
2023/02/13 08:52:33;;;;;;;40.60;26.05;;;;;;;9.27;100.00;103696.88;10336284;28;20034;-65
2023/02/13 08:57:33;;;;;;;43.38;25.23;;;;;;;9.23;100.00;103686.44;10334690;28;20105;-65
2023/02/13 09:02:34;;;;;;;43.53;26.60;;;;;;;9.18;100.00;103700.31;10335278;28;20409;-65
2023/02/13 09:07:34;;;;;;;39.92;27.95;;;;;;;9.44;100.00;103691.97;10333799;28;20122;-65
2023/02/13 09:12:35;;;;;;;40.00;25.45;;;;;;;9.40;100.00;103691.38;10335271;28;20030;-65
2023/02/13 09:17:35;;;;;;;39.67;27.75;;;;;;;9.66;100.00;103692.00;10335151;28;20398;-65
2023/02/13 09:22:35;;;;;;;44.13;27.73;;;;;;;9.84;100.00;103686.94;10368979;28;20121;-64
2023/02/13 09:27:37;;;;;;;38.90;26.00;;;;;;;9.98;100.00;103693.94;10336773;28;20374;-65
2023/02/13 09:32:38;;;;;;;44.40;27.80;;;;;;;10.34;100.00;103689.22;10335261;28;20084;-65
2023/02/13 09:37:38;;;;;;;53.53;29.48;;;;;;;10.97;100.00;103697.47;10317778;28;20069;-64
2023/02/13 09:42:39;;;;;;;35.35;25.65;;;;;;;11.44;100.00;103696.06;10334039;28;20038;-65
2023/02/13 09:47:40;;;;;;;47.65;28.38;;;;;;;11.15;100.00;103693.16;10333738;28;20061;-65
2023/02/13 09:52:42;;;;;;;35.22;25.52;;;;;;;11.02;100.00;103697.94;10332841;28;20513;-65
2023/02/13 09:57:51;;;;;;;50.58;28.80;;;;;;;10.47;100.00;103695.34;10333526;28;20034;-65
2023/02/13 10:02:58;;;;;;;44.78;28.95;;;;;;;10.84;100.00;103690.38;10352433;28;20038;-65
2023/02/13 10:08:32;;;;;;;39.20;29.23;;;;;;;11.54;100.00;103685.25;10342420;28;20113;-65
2023/02/13 10:13:59;;;;;;;40.63;25.80;;;;;;;11.65;100.00;103690.59;10342092;28;20060;-65
2023/02/13 10:19:22;;;;;;;36.50;25.60;;;;;;;12.05;100.00;103690.59;10340851;28;20030;-65
2023/02/13 10:24:36;;;;;;;37.10;23.77;;;;;;;12.79;100.00;103681.97;10359573;28;20180;-65
2023/02/13 10:35:03;;;;;;;36.92;25.60;;;;;;;13.26;100.00;103670.31;10339780;28;20046;-65
2023/02/13 10:40:05;;;;;;;36.38;24.38;;;;;;;13.04;96.29;103674.19;10339796;28;20419;-65
2023/02/13 10:45:28;;;;;;;44.08;27.80;;;;;;;13.16;100.00;103658.56;10339831;28;20112;-65
2023/02/13 10:50:44;;;;;;;40.15;28.08;;;;;;;12.92;98.30;103662.63;10339601;28;20031;-65
2023/02/13 10:55:59;;;;;;;41.50;25.65;;;;;;;13.53;100.00;103661.34;10341159;28;20065;-65
2023/02/13 11:01:07;;;;;;;31.55;25.27;;;;;;;12.49;95.62;103660.34;10339571;28;20038;-64
2023/02/13 11:06:08;;;;;;;44.13;27.02;;;;;;;12.79;97.83;103652.06;10340146;28;20536;-65
2023/02/13 11:11:31;;;;;;;43.95;28.55;;;;;;;13.17;94.70;103655.69;10338452;28;20030;-65
2023/02/13 11:17:12;;;;;;;44.65;29.65;;;;;;;13.53;95.24;103647.75;10339220;28;20030;-65
2023/02/13 11:22:15;;;;;;;38.75;24.83;;;;;;;13.59;93.76;103638.97;10366764;28;20505;-65
2023/02/13 11:27:15;;;;;;;51.63;26.17;;;;;;;14.01;95.65;103626.66;10321942;28;20084;-65
2023/02/13 11:32:15;;;;;;;45.28;29.17;;;;;;;14.60;90.35;103619.78;10321611;28;20421;-65
2023/02/13 11:37:21;;;;;;;43.27;26.57;;;;;;;14.02;84.77;103620.22;10338367;28;20409;-65
2023/02/13 11:42:33;;;;;;;50.05;30.85;;;;;;;14.13;88.88;103615.38;10323160;28;20300;-65
2023/02/13 11:47:40;;;;;;;38.20;24.50;;;;;;;14.35;78.93;103607.75;10336799;28;20132;-65
2023/02/13 11:52:41;;;;;;;38.80;23.42;;;;;;;14.30;88.81;103610.97;10338060;28;20073;-65
2023/02/13 11:57:41;;;;;;;38.50;22.88;;;;;;;14.32;90.94;103608.06;10339195;28;20443;-65
2023/02/13 12:02:48;;;;;;;42.75;24.35;;;;;;;14.60;90.09;103609.72;10320473;28;20085;-65
2023/02/13 12:07:48;;;;;;;40.28;25.33;;;;;;;14.80;78.70;103599.47;10336240;28;20463;-65
2023/02/13 12:12:57;;;;;;;38.00;22.88;;;;;;;14.56;88.07;103596.56;10336295;28;20039;-65
2023/02/13 12:18:22;;;;;;;34.85;23.40;;;;;;;14.92;91.19;103600.06;10320740;28;20026;-64
2023/02/13 12:23:29;;;;;;;36.38;20.92;;;;;;;14.01;83.78;103596.69;10369128;28;20038;-65
2023/02/13 12:28:50;;;;;;;31.00;19.98;;;;;;;14.16;81.48;103590.56;10337010;28;20117;-65
2023/02/13 12:34:24;;;;;;;46.13;25.17;;;;;;;14.24;85.42;103594.38;10336680;28;20047;-65
2023/02/13 12:39:35;;;;;;;33.83;20.52;;;;;;;14.44;81.87;103582.28;10335224;28;20042;-65
2023/02/13 12:44:50;;;;;;;25.20;18.17;;;;;;;14.46;85.85;103573.97;10335691;28;20042;-65
2023/02/13 12:50:16;;;;;;;26.95;18.35;;;;;;;14.69;85.18;103571.63;10334739;28;20038;-65
2023/02/13 12:55:18;;;;;;;28.77;19.15;;;;;;;14.83;85.14;103566.41;10334844;28;20030;-65
2023/02/13 13:00:44;;;;;;;22.40;15.05;;;;;;;15.15;83.47;103562.16;10335185;28;20027;-65
2023/02/13 13:06:23;;;;;;;23.90;16.55;;;;;;;14.76;83.54;103556.31;10334786;28;20038;-65
2023/02/13 13:11:51;;;;;;;30.98;15.85;;;;;;;14.88;83.03;103563.22;10335145;28;20047;-65
2023/02/13 13:17:42;;;;;;;20.95;15.57;;;;;;;14.81;78.27;103549.38;10334984;28;20041;-65
2023/02/13 13:22:51;;;;;;;22.65;14.45;;;;;;;14.48;82.09;103544.66;10351275;28;20043;-65
2023/02/13 13:27:54;;;;;;;21.63;16.10;;;;;;;14.40;85.15;103540.84;10334871;28;20105;-65
2023/02/13 13:33:17;;;;;;;25.83;15.88;;;;;;;14.74;79.88;103542.84;10366308;28;20462;-65
2023/02/13 13:38:38;;;;;;;21.73;15.98;;;;;;;14.18;79.41;103544.09;10334971;28;20030;-65
2023/02/13 13:44:15;;;;;;;32.20;17.05;;;;;;;14.30;80.35;103539.25;10335093;28;20102;-65
2023/02/13 13:49:35;;;;;;;18.33;15.07;;;;;;;14.06;82.94;103527.09;10334380;28;20034;-65
2023/02/13 13:54:35;;;;;;;19.77;13.95;;;;;;;13.92;81.28;103528.53;10368605;28;20077;-65
2023/02/13 13:59:36;;;;;;;18.38;13.18;;;;;;;13.78;78.50;103511.84;10334281;28;20485;-65
2023/02/13 14:04:37;;;;;;;24.00;13.63;;;;;;;13.76;86.53;103516.63;10333320;28;20121;-65
2023/02/13 14:09:42;;;;;;;21.42;14.95;;;;;;;13.81;82.36;103517.00;10316006;28;20038;-65
2023/02/13 14:14:43;;;;;;;19.08;14.10;;;;;;;13.54;85.55;103502.44;10334299;28;20034;-65
2023/02/13 14:19:47;;;;;;;19.83;13.85;;;;;;;13.56;83.71;103499.53;10334239;28;20422;-65
2023/02/13 14:24:58;;;;;;;19.42;14.88;;;;;;;13.43;85.66;103498.06;10316451;28;20030;-65
2023/02/13 14:29:59;;;;;;;26.60;15.25;;;;;;;13.49;88.59;103496.56;10331703;28;20026;-65
2023/02/13 14:35:01;;;;;;;25.08;15.40;;;;;;;13.36;88.52;103486.06;10332595;28;20412;-65
2023/02/13 14:40:17;;;;;;;23.10;16.23;;;;;;;13.36;89.33;103482.47;10332842;28;20398;-65
2023/02/13 14:45:23;;;;;;;27.00;15.73;;;;;;;13.37;89.74;103493.22;10333489;28;20128;-65
2023/02/13 14:50:26;;;;;;;22.90;15.38;;;;;;;13.40;84.09;103494.75;10322126;28;20088;-65
2023/02/13 14:55:30;;;;;;;22.05;15.38;;;;;;;13.35;90.46;103478.06;10339479;28;20372;-65
2023/02/13 15:00:34;;;;;;;23.77;14.57;;;;;;;13.13;88.40;103491.03;10339790;28;20034;-65
2023/02/13 15:05:35;;;;;;;17.80;12.93;;;;;;;12.89;90.30;103474.38;10373420;28;20069;-65
2023/02/13 15:10:43;;;;;;;18.27;14.20;;;;;;;12.76;88.61;103472.00;10371526;28;20026;-65
2023/02/13 15:15:44;;;;;;;18.88;13.20;;;;;;;12.60;91.87;103479.94;10339328;28;20370;-65
2023/02/13 15:20:44;;;;;;;15.90;11.93;;;;;;;12.35;88.16;103474.16;10338557;28;20089;-65
2023/02/13 15:25:45;;;;;;;15.88;12.95;;;;;;;12.25;89.92;103463.31;10321898;28;20105;-65
2023/02/13 15:31:06;;;;;;;25.83;14.07;;;;;;;12.10;90.72;103464.75;10338015;28;20035;-65
2023/02/13 15:36:06;;;;;;;22.67;12.57;;;;;;;11.87;89.92;103469.63;10340345;28;20034;-65
2023/02/13 15:41:16;;;;;;;14.52;11.82;;;;;;;11.56;91.47;103472.44;10338205;28;20500;-65
2023/02/13 15:46:27;;;;;;;24.90;14.15;;;;;;;11.34;91.65;103473.53;10338266;28;20482;-65
2023/02/13 15:51:28;;;;;;;20.15;13.73;;;;;;;11.13;91.70;103470.03;10338354;28;20041;-65
2023/02/13 15:56:29;;;;;;;18.40;14.77;;;;;;;10.95;91.80;103472.56;10321665;28;20035;-65
2023/02/13 16:01:30;;;;;;;25.63;14.00;;;;;;;10.78;91.95;103475.91;10368723;28;20193;-65
2023/02/13 16:06:30;;;;;;;23.30;14.48;;;;;;;10.68;92.87;103479.44;10337526;28;20117;-65
2023/02/13 16:11:34;;;;;;;22.23;13.98;;;;;;;10.55;93.25;103475.22;10337333;28;20041;-65
2023/02/13 16:16:47;;;;;;;25.63;14.93;;;;;;;10.46;93.93;103472.34;10337493;28;20026;-65
2023/02/13 16:21:48;;;;;;;20.63;13.63;;;;;;;10.38;94.08;103455.03;10353634;28;20061;-65
2023/02/13 16:26:48;;;;;;;32.58;18.45;;;;;;;10.30;94.16;103447.56;10319172;28;20161;-65
2023/02/13 16:31:49;;;;;;;29.30;17.20;;;;;;;10.12;95.79;103457.28;10335185;28;20521;-65
2023/02/13 16:36:49;;;;;;;26.55;15.85;;;;;;;9.98;95.87;103450.31;10351585;28;20034;-65
2023/02/13 16:41:50;;;;;;;30.85;17.00;;;;;;;9.81;96.67;103449.03;10335155;28;20470;-65
2023/02/13 16:46:57;;;;;;;28.45;16.73;;;;;;;9.62;96.99;103446.19;10318847;28;20402;-65
2023/02/13 16:52:11;;;;;;;22.75;15.10;;;;;;;9.49;98.51;103452.59;10335941;28;20085;-65
2023/02/13 16:57:16;;;;;;;22.98;15.32;;;;;;;9.43;99.99;103461.22;10334908;28;20410;-65
2023/02/13 17:02:19;;;;;;;26.35;16.35;;;;;;;9.28;100.00;103457.09;10335801;28;20038;-65
2023/02/13 17:07:30;;;;;;;24.30;17.02;;;;;;;9.16;99.40;103458.13;10335061;28;20031;-65
2023/02/13 17:12:32;;;;;;;28.95;17.83;;;;;;;8.95;100.00;103461.56;10350228;28;20458;-65
2023/02/13 17:17:33;;;;;;;31.42;20.48;;;;;;;8.89;100.00;103464.75;10318546;28;20030;-65
2023/02/13 17:22:38;;;;;;;30.67;18.55;;;;;;;8.77;100.00;103468.44;10333879;28;20470;-65
2023/02/13 17:27:38;;;;;;;34.40;18.38;;;;;;;8.68;100.00;103475.47;10334256;28;20101;-65
2023/02/13 17:32:39;;;;;;;33.85;19.42;;;;;;;8.55;100.00;103472.88;10334118;28;20344;-65
2023/02/13 17:37:40;;;;;;;28.80;19.63;;;;;;;8.46;100.00;103467.34;10333673;28;20062;-65
2023/02/13 17:42:40;;;;;;;29.48;18.13;;;;;;;8.36;100.00;103459.06;10333933;28;20038;-65
2023/02/13 17:47:41;;;;;;;31.13;18.77;;;;;;;8.29;100.00;103468.59;10334668;28;20494;-65
2023/02/13 17:52:41;;;;;;;30.88;18.00;;;;;;;8.18;100.00;103471.28;10332948;28;20026;-65
2023/02/13 17:57:42;;;;;;;34.78;22.15;;;;;;;8.07;100.00;103461.31;10316322;28;20038;-65
2023/02/13 18:02:43;;;;;;;29.83;18.40;;;;;;;7.98;100.00;103467.44;10333040;28;20049;-65
2023/02/13 18:07:43;;;;;;;29.83;19.60;;;;;;;7.86;100.00;103469.22;10334183;28;20113;-65
2023/02/13 18:12:44;;;;;;;30.17;21.45;;;;;;;7.79;100.00;103466.13;10334835;28;20096;-65
2023/02/13 18:17:45;;;;;;;33.55;20.35;;;;;;;7.69;100.00;103471.34;10348969;28;20022;-65
2023/02/13 18:22:45;;;;;;;33.78;19.63;;;;;;;7.53;100.00;103457.31;10336023;28;20447;-64
2023/02/13 18:27:46;;;;;;;33.47;20.27;;;;;;;7.46;100.00;103466.81;10343449;28;20117;-65
2023/02/13 18:32:51;;;;;;;29.50;20.88;;;;;;;7.32;100.00;103462.44;10341010;28;20030;-65
2023/02/13 18:37:52;;;;;;;30.70;19.73;;;;;;;7.25;100.00;103460.34;10341863;28;20109;-65
2023/02/13 18:42:52;;;;;;;34.33;21.00;;;;;;;7.13;100.00;103467.47;10340226;28;20046;-65
2023/02/13 18:47:53;;;;;;;32.05;22.25;;;;;;;6.96;100.00;103466.88;10342047;28;20038;-66
2023/02/13 18:52:53;;;;;;;33.05;21.52;;;;;;;6.71;100.00;103470.44;10341393;28;20132;-65
2023/02/13 18:57:55;;;;;;;29.20;21.48;;;;;;;6.55;100.00;103467.13;10340267;28;20038;-65
2023/02/13 19:02:57;;;;;;;34.17;21.67;;;;;;;6.46;100.00;103478.53;10340990;28;20034;-65
2023/02/13 19:07:57;;;;;;;34.35;21.70;;;;;;;6.43;100.00;103468.84;10340303;28;20050;-65
2023/02/13 19:12:58;;;;;;;44.45;23.38;;;;;;;6.46;100.00;103460.56;10339419;28;20046;-65
2023/02/13 19:17:58;;;;;;;40.40;24.25;;;;;;;6.41;100.00;103459.13;10340453;28;20070;-65
2023/02/13 19:22:59;;;;;;;47.08;21.52;;;;;;;6.36;100.00;103458.63;10339086;28;20180;-65
2023/02/13 19:27:59;;;;;;;37.83;21.75;;;;;;;6.25;100.00;103460.25;10338966;28;20085;-65
2023/02/13 19:32:59;;;;;;;33.35;23.67;;;;;;;6.18;100.00;103466.13;10338863;28;20043;-65
2023/02/13 19:38:00;;;;;;;40.38;25.90;;;;;;;6.17;100.00;103467.09;10339041;28;20049;-65
2023/02/13 19:43:00;;;;;;;33.20;22.85;;;;;;;6.15;100.00;103469.88;10337414;28;20080;-65
2023/02/13 19:48:01;;;;;;;39.35;24.85;;;;;;;6.14;100.00;103470.00;10339668;28;20042;-65
2023/02/13 19:53:03;;;;;;;41.35;25.33;;;;;;;6.04;100.00;103462.56;10337532;28;20034;-65
2023/02/13 19:58:03;;;;;;;33.67;25.95;;;;;;;5.97;100.00;103463.97;10337492;28;20176;-65
2023/02/13 20:03:04;;;;;;;35.05;24.70;;;;;;;5.90;100.00;103457.22;10339024;28;20039;-65
2023/02/13 20:08:04;;;;;;;41.10;24.58;;;;;;;5.85;100.00;103462.06;10337826;28;20164;-65
2023/02/13 20:13:05;;;;;;;38.38;25.25;;;;;;;5.80;100.00;103465.03;10336601;28;20090;-65
2023/02/13 20:18:05;;;;;;;37.17;23.85;;;;;;;5.66;100.00;103465.13;10338046;28;20041;-64
2023/02/13 20:23:06;;;;;;;40.53;22.67;;;;;;;5.60;100.00;103470.91;10337432;28;20038;-65
2023/02/13 20:28:09;;;;;;;36.38;26.80;;;;;;;5.52;100.00;103462.47;10337479;28;20073;-65
2023/02/13 20:33:10;;;;;;;31.73;26.38;;;;;;;5.54;100.00;103471.31;10339176;28;20200;-65
2023/02/13 20:38:12;;;;;;;48.55;27.35;;;;;;;5.42;100.00;103480.16;10340274;28;20042;-65
2023/02/13 20:43:12;;;;;;;44.55;30.15;;;;;;;5.37;100.00;103483.16;10335933;28;20499;-65
2023/02/13 20:48:13;;;;;;;40.42;27.50;;;;;;;5.28;100.00;103484.63;10334951;28;20129;-65
2023/02/13 20:53:13;;;;;;;35.28;24.88;;;;;;;5.19;100.00;103484.34;10335500;28;20034;-65
2023/02/13 20:58:14;;;;;;;51.22;27.83;;;;;;;5.07;100.00;103484.19;10336192;28;20193;-65
2023/02/13 21:03:14;;;;;;;55.22;26.38;;;;;;;5.01;100.00;103494.44;10335371;28;20399;-66
2023/02/13 21:08:15;;;;;;;48.60;25.83;;;;;;;4.93;100.00;103494.06;10335879;28;20149;-66
2023/02/13 21:13:15;;;;;;;42.53;24.58;;;;;;;4.82;100.00;103492.94;10335314;28;20035;-66
2023/02/13 21:18:16;;;;;;;43.58;25.58;;;;;;;4.70;100.00;103499.06;10334630;28;20045;-66
2023/02/13 21:23:16;;;;;;;37.80;25.30;;;;;;;4.63;100.00;103492.34;10334318;28;20034;-65
2023/02/13 21:28:16;;;;;;;38.53;25.23;;;;;;;4.66;100.00;103484.13;10366987;28;20030;-65
2023/02/13 21:33:17;;;;;;;50.92;27.90;;;;;;;4.57;100.00;103492.72;10334277;28;20038;-65
2023/02/13 21:38:18;;;;;;;43.35;26.55;;;;;;;4.58;100.00;103495.31;10333451;28;20367;-65
2023/02/13 21:43:18;;;;;;;43.88;25.95;;;;;;;4.63;100.00;103497.72;10334743;28;20089;-65
2023/02/13 21:48:19;;;;;;;45.75;26.17;;;;;;;4.47;100.00;103480.81;10332282;28;20482;-66
2023/02/13 21:53:19;;;;;;;45.40;25.98;;;;;;;4.30;100.00;103479.16;10365352;28;20081;-64
2023/02/13 21:58:20;;;;;;;40.33;25.65;;;;;;;4.20;100.00;103478.88;10331554;28;20057;-65
2023/02/13 22:03:20;;;;;;;36.92;24.98;;;;;;;4.18;100.00;103481.66;10330782;28;20074;-64
2023/02/13 22:08:21;;;;;;;41.33;27.63;;;;;;;4.34;100.00;103476.22;10331358;28;20038;-64
2023/02/13 22:13:21;;;;;;;45.22;26.30;;;;;;;4.35;100.00;103482.44;10331725;28;20104;-65
2023/02/13 22:18:22;;;;;;;41.75;26.00;;;;;;;4.33;100.00;103470.94;10315459;28;20029;-64
2023/02/13 22:23:22;;;;;;;40.17;26.13;;;;;;;4.21;100.00;103475.22;10332153;28;20041;-65
2023/02/13 22:28:23;;;;;;;47.20;26.73;;;;;;;4.09;100.00;103471.47;10331982;28;20038;-65
2023/02/13 22:33:23;;;;;;;49.00;26.38;;;;;;;4.09;100.00;103468.78;10330554;28;20399;-65
2023/02/13 22:38:24;;;;;;;44.20;28.35;;;;;;;4.17;100.00;103469.19;10363760;28;20042;-65
2023/02/13 22:43:24;;;;;;;50.50;27.52;;;;;;;4.23;100.00;103467.94;10293483;28;1111778;-65
2023/02/13 22:48:25;;;;;;;48.65;30.20;;;;;;;4.18;100.00;103475.44;10333474;28;20042;-65
2023/02/13 22:53:25;;;;;;;52.83;28.00;;;;;;;4.17;100.00;103462.97;10377361;28;20038;-65
2023/02/13 22:58:26;;;;;;;38.85;26.08;;;;;;;4.08;100.00;103456.31;10374147;28;20116;-65
2023/02/13 23:03:26;;;;;;;49.95;30.63;;;;;;;4.16;100.00;103455.88;10397259;28;20187;-65
2023/02/13 23:08:27;;;;;;;50.80;30.23;;;;;;;4.05;100.00;103453.84;10415017;28;20091;-65
2023/02/13 23:13:27;;;;;;;56.22;29.95;;;;;;;4.00;100.00;103452.41;10420928;28;20474;-64
2023/02/13 23:18:28;;;;;;;50.22;31.33;;;;;;;3.95;100.00;103441.94;10420801;28;20042;-65
2023/02/13 23:23:28;;;;;;;44.58;30.23;;;;;;;3.88;100.00;103449.47;10422367;28;20041;-65
2023/02/13 23:28:29;;;;;;;52.15;29.98;;;;;;;3.88;100.00;103449.47;10421102;28;20056;-65
2023/02/13 23:33:29;;;;;;;43.42;30.67;;;;;;;3.85;100.00;103446.13;10420226;28;20065;-64
2023/02/13 23:38:30;;;;;;;44.22;29.65;;;;;;;3.89;100.00;103447.66;10402990;28;20029;-65
2023/02/13 23:43:30;;;;;;;47.53;30.25;;;;;;;3.84;100.00;103449.78;10419671;28;20175;-65